createdAt,value
2022-12-08T00:02:02.584Z,57.58
2022-12-08T00:04:51.121Z,61.00
2022-12-08T00:07:38.222Z,52.78
2022-12-08T00:10:39.939Z,53.55
2022-12-08T00:12:56.082Z,70.60
2022-12-08T00:15:24.319Z,54.78
2022-12-08T00:17:52.252Z,57.40
2022-12-08T00:20:21.022Z,53.92
2022-12-08T00:22:50.391Z,59.13
2022-12-08T00:25:19.018Z,61.78
2022-12-08T00:27:47.099Z,47.63
2022-12-08T00:30:15.205Z,63.08
2022-12-08T00:32:46.341Z,57.55
2022-12-08T00:35:14.506Z,60.45
2022-12-08T00:37:42.573Z,68.93
2022-12-08T00:40:12.617Z,68.10
2022-12-08T00:42:40.938Z,73.10
2022-12-08T00:45:09.651Z,74.85
2022-12-08T00:47:37.774Z,64.80
2022-12-08T00:50:07.364Z,55.47
2022-12-08T00:52:35.694Z,59.58
2022-12-08T00:55:03.963Z,52.50
2022-12-08T00:57:34.464Z,59.67
2022-12-08T01:00:02.772Z,66.18
2022-12-08T01:02:32.531Z,50.60
2022-12-08T01:05:00.667Z,49.53
2022-12-08T01:07:29.542Z,51.10
2022-12-08T01:09:58.086Z,52.70
2022-12-08T01:12:26.573Z,56.95
2022-12-08T01:15:00.636Z,54.80
2022-12-08T01:17:30.904Z,53.15
2022-12-08T01:19:59.293Z,61.85
2022-12-08T01:22:27.302Z,43.22
2022-12-08T01:24:55.547Z,49.20
2022-12-08T01:27:23.541Z,41.65
2022-12-08T01:29:52.160Z,40.33
2022-12-08T01:32:21.648Z,36.63
2022-12-08T01:34:49.666Z,41.97
2022-12-08T01:37:17.778Z,49.20
2022-12-08T01:39:46.186Z,40.03
2022-12-08T01:42:22.279Z,38.25
2022-12-08T01:45:00.245Z,33.30
2022-12-08T01:47:36.291Z,45.72
2022-12-08T01:50:07.855Z,40.60
2022-12-08T01:52:40.879Z,41.10
2022-12-08T01:55:14.178Z,47.28
2022-12-08T01:57:47.925Z,41.70
2022-12-08T02:00:19.587Z,45.25
2022-12-08T02:02:54.715Z,38.60
2022-12-08T02:05:25.945Z,44.45
2022-12-08T02:07:55.843Z,45.00
2022-12-08T02:10:25.532Z,46.47
2022-12-08T02:12:55.553Z,41.83
2022-12-08T02:15:34.139Z,43.78
2022-12-08T02:18:18.336Z,34.80
2022-12-08T02:20:55.292Z,41.03
2022-12-08T02:23:33.117Z,37.42
2022-12-08T02:26:37.775Z,45.95
2022-12-08T02:30:04.147Z,30.08
2022-12-08T02:33:11.638Z,43.25
2022-12-08T02:35:50.153Z,50.40
2022-12-08T02:38:27.946Z,33.50
2022-12-08T02:41:07.383Z,39.70
2022-12-08T02:43:43.446Z,40.50
2022-12-08T02:46:17.359Z,49.85
2022-12-08T02:48:45.596Z,42.55
2022-12-08T02:51:14.934Z,46.33
2022-12-08T02:53:43.575Z,51.78
2022-12-08T02:56:25.300Z,52.13
2022-12-08T02:59:15.458Z,40.00
2022-12-08T03:02:02.253Z,49.47
2022-12-08T03:04:40.264Z,44.58
2022-12-08T03:07:15.407Z,36.97
2022-12-08T03:09:49.070Z,38.22
2022-12-08T03:12:22.027Z,48.03
2022-12-08T03:14:54.747Z,37.05
2022-12-08T03:17:29.692Z,42.95
2022-12-08T03:20:06.381Z,37.28
2022-12-08T03:22:36.923Z,42.70
2022-12-08T03:25:05.420Z,32.15
2022-12-08T03:27:35.020Z,36.95
2022-12-08T03:30:04.239Z,43.65
2022-12-08T03:32:39.087Z,32.15
2022-12-08T03:35:12.477Z,44.55
2022-12-08T03:37:43.794Z,34.05
2022-12-08T03:40:15.414Z,39.33
2022-12-08T03:42:43.466Z,36.83
2022-12-08T03:45:12.698Z,42.55
2022-12-08T03:47:40.596Z,41.20
2022-12-08T03:50:09.718Z,46.22
2022-12-08T03:52:37.629Z,49.10
2022-12-08T03:55:08.520Z,40.90
2022-12-08T03:57:36.598Z,46.55
2022-12-08T04:00:07.119Z,43.75
2022-12-08T04:02:35.345Z,34.92
2022-12-08T04:05:03.551Z,39.70
2022-12-08T04:07:31.516Z,43.78
2022-12-08T04:09:59.376Z,45.75
2022-12-08T04:12:29.229Z,36.83
2022-12-08T04:14:57.171Z,43.03
2022-12-08T04:17:25.415Z,41.72
2022-12-08T04:19:53.371Z,51.40
2022-12-08T04:22:21.471Z,42.05
2022-12-08T04:24:49.503Z,45.38
2022-12-08T04:27:17.816Z,41.22
2022-12-08T04:29:47.283Z,41.53
2022-12-08T04:32:15.543Z,48.72
2022-12-08T04:34:43.482Z,43.53
2022-12-08T04:37:11.527Z,46.15
2022-12-08T04:39:39.406Z,39.28
2022-12-08T04:42:07.708Z,37.60
2022-12-08T04:44:35.622Z,43.10
2022-12-08T04:47:05.540Z,50.60
2022-12-08T04:49:33.567Z,40.15
2022-12-08T04:52:01.898Z,41.15
2022-12-08T04:54:30.115Z,41.83
2022-12-08T04:56:58.422Z,39.10
2022-12-08T04:59:26.388Z,44.38
2022-12-08T05:01:55.074Z,52.85
2022-12-08T05:04:24.510Z,44.25
2022-12-08T05:06:54.010Z,38.08
2022-12-08T05:09:22.363Z,34.20
2022-12-08T05:11:50.459Z,65.25
2022-12-08T05:14:21.062Z,46.10
2022-12-08T05:16:51.994Z,42.73
2022-12-08T05:19:20.298Z,40.25
2022-12-08T05:21:49.679Z,55.70
2022-12-08T05:24:17.795Z,41.70
2022-12-08T05:26:45.745Z,44.20
2022-12-08T05:29:13.953Z,43.83
2022-12-08T05:31:41.998Z,50.42
2022-12-08T05:34:10.061Z,47.00
2022-12-08T05:36:38.060Z,38.67
2022-12-08T05:39:07.471Z,39.60
2022-12-08T05:41:35.434Z,42.85
2022-12-08T05:44:03.663Z,45.85
2022-12-08T05:46:31.640Z,40.03
2022-12-08T05:49:00.724Z,39.17
2022-12-08T05:51:29.369Z,44.95
2022-12-08T05:53:58.108Z,43.58
2022-12-08T05:56:27.487Z,39.10
2022-12-08T05:58:55.839Z,39.85
2022-12-08T06:01:26.089Z,45.42
2022-12-08T06:03:54.215Z,52.55
2022-12-08T06:06:23.006Z,49.95
2022-12-08T06:08:51.549Z,45.95
2022-12-08T06:11:21.078Z,37.50
2022-12-08T06:13:50.935Z,51.33
2022-12-08T06:16:19.615Z,47.87
2022-12-08T06:18:48.299Z,53.73
2022-12-08T06:21:17.394Z,48.42
2022-12-08T06:23:45.827Z,62.92
2022-12-08T06:26:16.339Z,38.93
2022-12-08T06:28:44.998Z,45.90
2022-12-08T06:31:17.188Z,45.03
2022-12-08T06:33:45.749Z,37.42
2022-12-08T06:36:15.042Z,40.67
2022-12-08T06:38:43.862Z,37.78
2022-12-08T06:41:13.293Z,46.50
2022-12-08T06:43:42.082Z,35.57
2022-12-08T06:46:12.679Z,46.83
2022-12-08T06:48:42.347Z,46.00
2022-12-08T06:51:12.441Z,43.92
2022-12-08T06:53:41.350Z,46.35
2022-12-08T06:56:10.051Z,48.05
2022-12-08T06:58:38.286Z,39.80
2022-12-08T07:01:07.909Z,45.78
2022-12-08T07:03:36.300Z,42.83
2022-12-08T07:06:06.346Z,53.30
2022-12-08T07:08:36.013Z,46.53
2022-12-08T07:11:09.840Z,43.20
2022-12-08T07:13:37.985Z,39.67
2022-12-08T07:16:07.807Z,44.58
2022-12-08T07:18:36.832Z,49.05
2022-12-08T07:21:08.075Z,49.88
2022-12-08T07:23:36.317Z,44.53
2022-12-08T07:26:05.960Z,60.35
2022-12-08T07:28:34.282Z,36.97
2022-12-08T07:31:02.555Z,49.10
2022-12-08T07:33:31.537Z,52.92
2022-12-08T07:36:01.896Z,46.10
2022-12-08T07:38:32.018Z,45.80
2022-12-08T07:40:59.993Z,44.58
2022-12-08T07:43:28.152Z,47.15
2022-12-08T07:45:56.542Z,58.45
2022-12-08T07:48:24.592Z,58.60
2022-12-08T07:50:52.468Z,60.30
2022-12-08T07:53:20.866Z,52.42
2022-12-08T07:55:51.586Z,48.28
2022-12-08T07:58:19.976Z,64.40
2022-12-08T08:00:47.976Z,48.92
2022-12-08T08:03:15.989Z,47.20
2022-12-08T08:05:44.673Z,52.47
2022-12-08T08:08:12.560Z,59.17
2022-12-08T08:10:40.470Z,52.78
2022-12-08T08:13:10.522Z,51.65
2022-12-08T08:15:38.410Z,54.40
2022-12-08T08:18:06.413Z,57.08
2022-12-08T08:20:34.747Z,45.20
2022-12-08T08:23:02.668Z,41.78
2022-12-08T08:25:30.658Z,45.95
2022-12-08T08:27:59.265Z,48.75
2022-12-08T08:30:28.486Z,43.50
2022-12-08T08:32:56.384Z,52.65
2022-12-08T08:35:26.560Z,44.70
2022-12-08T08:37:54.989Z,70.63
2022-12-08T08:40:22.858Z,57.15
2022-12-08T08:42:51.131Z,55.50
2022-12-08T08:45:18.972Z,39.00
2022-12-08T08:47:48.393Z,49.78
2022-12-08T08:50:16.249Z,64.10
2022-12-08T08:52:44.094Z,51.75
2022-12-08T08:55:12.308Z,45.92
2022-12-08T08:57:40.814Z,58.55
2022-12-08T09:00:10.244Z,60.10
2022-12-08T09:02:38.732Z,45.47
2022-12-08T09:05:09.260Z,67.53
2022-12-08T09:07:37.430Z,58.17
2022-12-08T09:10:06.919Z,60.97
2022-12-08T09:12:35.160Z,56.58
2022-12-08T09:15:02.987Z,68.40
2022-12-08T09:17:30.819Z,54.95
2022-12-08T09:19:59.116Z,49.63
2022-12-08T09:22:28.574Z,54.20
2022-12-08T09:24:56.634Z,48.92
2022-12-08T09:27:24.906Z,45.50
2022-12-08T09:29:53.051Z,39.50
2022-12-08T09:32:20.842Z,52.50
2022-12-08T09:34:52.255Z,52.67
2022-12-08T09:37:20.357Z,44.65
2022-12-08T09:39:50.062Z,41.08
2022-12-08T09:42:30.814Z,40.58
2022-12-08T09:45:06.720Z,41.10
2022-12-08T09:47:38.461Z,42.30
2022-12-08T09:50:13.082Z,42.22
2022-12-08T09:52:44.597Z,29.40
2022-12-08T09:55:22.440Z,38.28
2022-12-08T09:57:56.602Z,33.22
2022-12-08T10:00:24.957Z,39.22
2022-12-08T10:02:53.025Z,31.13
2022-12-08T10:05:21.875Z,32.20
2022-12-08T10:08:00.124Z,36.30
2022-12-08T10:10:38.047Z,36.88
2022-12-08T10:13:13.508Z,38.20
2022-12-08T10:15:47.364Z,33.22
2022-12-08T10:18:18.730Z,34.40
2022-12-08T10:20:49.031Z,35.15
2022-12-08T10:23:29.273Z,27.95
2022-12-08T10:26:02.974Z,32.90
2022-12-08T10:28:32.312Z,44.05
2022-12-08T10:31:00.472Z,23.52
2022-12-08T10:33:29.810Z,26.50
2022-12-08T10:36:01.052Z,43.08
2022-12-08T10:38:32.589Z,40.25
2022-12-08T10:41:08.965Z,43.25
2022-12-08T10:43:39.482Z,30.13
2022-12-08T10:46:13.601Z,52.00
2022-12-08T10:48:50.689Z,45.65
2022-12-08T10:51:30.849Z,49.25
2022-12-08T10:53:59.400Z,29.80
2022-12-08T10:56:30.657Z,35.80
2022-12-08T10:59:15.242Z,39.50
2022-12-08T11:01:48.690Z,42.45
2022-12-08T11:04:19.624Z,32.55
2022-12-08T11:06:49.622Z,34.88
2022-12-08T11:09:37.772Z,25.92
2022-12-08T11:12:14.940Z,41.92
2022-12-08T11:14:51.679Z,31.40
2022-12-08T11:17:27.349Z,46.15
2022-12-08T11:20:00.746Z,43.20
2022-12-08T11:22:32.751Z,61.45
2022-12-08T11:25:03.598Z,40.03
2022-12-08T11:27:35.622Z,24.77
2022-12-08T11:30:09.681Z,29.27
2022-12-08T11:32:44.785Z,20.85
2022-12-08T11:35:22.253Z,39.70
2022-12-08T11:37:50.553Z,27.40
2022-12-08T11:40:23.319Z,40.00
2022-12-08T11:42:58.278Z,35.92
2022-12-08T11:45:31.063Z,48.35
2022-12-08T11:48:07.365Z,39.75
2022-12-08T11:50:43.899Z,33.00
2022-12-08T11:53:20.898Z,30.52
2022-12-08T11:55:53.282Z,53.28
2022-12-08T11:58:28.340Z,31.02
2022-12-08T12:00:56.639Z,36.70
2022-12-08T12:03:30.309Z,40.90
2022-12-08T12:06:38.061Z,40.78
2022-12-08T12:09:14.377Z,35.13
2022-12-08T12:12:11.972Z,33.53
2022-12-08T12:14:57.962Z,35.53
2022-12-08T12:17:42.654Z,44.88
2022-12-08T12:20:18.209Z,42.42
2022-12-08T12:22:49.833Z,45.45
2022-12-08T12:25:20.829Z,29.35
2022-12-08T12:27:51.250Z,42.75
2022-12-08T12:30:29.988Z,41.67
2022-12-08T12:33:00.631Z,35.38
2022-12-08T12:35:34.861Z,36.70
2022-12-08T12:38:31.140Z,39.22
2022-12-08T12:41:04.152Z,54.38
2022-12-08T12:43:37.489Z,46.58
2022-12-08T12:46:54.555Z,46.20
2022-12-08T12:49:53.654Z,40.25
2022-12-08T12:52:44.586Z,36.00
2022-12-08T12:55:26.369Z,33.65
2022-12-08T12:57:56.378Z,31.00
2022-12-08T13:00:26.303Z,41.55
2022-12-08T13:02:58.425Z,35.25
2022-12-08T13:05:28.538Z,31.13
2022-12-08T13:07:59.729Z,30.67
2022-12-08T13:10:31.804Z,30.52
2022-12-08T13:13:06.567Z,39.45
2022-12-08T13:15:40.859Z,36.17
2022-12-08T13:18:21.694Z,35.17
2022-12-08T13:20:53.090Z,41.22
2022-12-08T13:23:31.097Z,37.88
2022-12-08T13:26:20.903Z,40.38
2022-12-08T13:29:23.199Z,29.52
2022-12-08T13:31:53.800Z,31.20
2022-12-08T13:34:31.096Z,29.33
2022-12-08T13:37:05.786Z,33.92
2022-12-08T13:39:42.247Z,30.08
2022-12-08T13:42:19.585Z,45.03
2022-12-08T13:45:19.814Z,28.98
2022-12-08T13:48:05.965Z,29.52
2022-12-08T13:59:10.047Z,23.58
2022-12-08T14:01:45.901Z,25.08
2022-12-08T14:07:13.662Z,27.65
2022-12-08T14:09:42.893Z,25.00
2022-12-08T14:12:19.995Z,19.40
2022-12-08T14:15:05.552Z,23.15
2022-12-08T14:17:34.504Z,29.05
2022-12-08T14:20:06.690Z,16.85
2022-12-08T14:22:38.533Z,27.77
2022-12-08T14:25:08.737Z,20.25
2022-12-08T14:27:40.176Z,20.60
2022-12-08T14:30:16.732Z,23.60
2022-12-08T14:32:48.790Z,20.67
2022-12-08T14:35:23.136Z,16.35
2022-12-08T14:37:56.121Z,18.85
2022-12-08T14:40:32.658Z,30.92
2022-12-08T14:43:16.122Z,32.53
2022-12-08T14:45:55.523Z,24.02
2022-12-08T14:48:26.872Z,19.70
2022-12-08T14:51:03.455Z,28.75
2022-12-08T14:53:40.157Z,20.08
2022-12-08T14:56:12.599Z,28.08
2022-12-08T14:58:40.646Z,17.17
2022-12-08T15:01:10.498Z,32.83
2022-12-08T15:03:38.858Z,32.70
2022-12-08T15:06:10.240Z,27.00
2022-12-08T15:08:55.250Z,22.05
2022-12-08T15:11:33.947Z,22.05
2022-12-08T15:14:05.781Z,24.55
2022-12-08T15:16:43.396Z,30.15
2022-12-08T15:19:20.559Z,22.48
2022-12-08T15:21:48.588Z,29.95
2022-12-08T15:24:18.740Z,25.15
2022-12-08T15:26:49.726Z,28.42
2022-12-08T15:29:22.352Z,27.05
2022-12-08T15:31:50.940Z,25.30
2022-12-08T15:34:19.167Z,25.92
2022-12-08T15:36:49.874Z,31.35
2022-12-08T15:39:29.708Z,32.05
2022-12-08T15:41:58.141Z,27.60
2022-12-08T15:44:26.301Z,28.40
2022-12-08T15:46:55.330Z,36.55
2022-12-08T15:49:25.720Z,21.17
2022-12-08T15:52:01.971Z,25.30
2022-12-08T15:54:40.708Z,30.25
2022-12-08T15:57:22.083Z,27.83
2022-12-08T15:59:59.032Z,27.75
2022-12-08T16:02:34.368Z,34.10
2022-12-08T16:05:41.458Z,32.50
2022-12-08T16:08:17.117Z,28.95
2022-12-08T16:11:34.665Z,35.78
2022-12-08T16:14:23.233Z,33.15
2022-12-08T16:16:43.765Z,32.67
2022-12-08T16:19:15.305Z,34.00
2022-12-08T16:24:31.576Z,40.88
2022-12-08T16:27:58.889Z,25.80
2022-12-08T16:29:49.500Z,25.92
2022-12-08T16:32:18.831Z,38.58
2022-12-08T16:34:47.477Z,33.33
2022-12-08T16:37:17.350Z,31.15
2022-12-08T16:39:46.380Z,32.67
2022-12-08T16:42:34.808Z,32.58
2022-12-08T16:45:05.047Z,45.63
2022-12-08T16:47:33.677Z,40.63
2022-12-08T16:50:01.597Z,38.15
2022-12-08T16:52:30.253Z,39.95
2022-12-08T16:54:58.289Z,28.10
2022-12-08T16:57:27.810Z,29.73
2022-12-08T16:59:56.658Z,44.75
2022-12-08T17:02:24.561Z,40.08
2022-12-08T17:04:52.521Z,30.13
2022-12-08T17:07:21.128Z,27.75
2022-12-08T17:09:49.060Z,27.98
2022-12-08T17:12:17.320Z,48.50
2022-12-08T17:14:47.034Z,41.28
2022-12-08T17:17:15.995Z,29.65
2022-12-08T17:19:43.857Z,32.53
2022-12-08T17:22:11.945Z,46.65
2022-12-08T17:24:40.327Z,49.50
2022-12-08T17:27:08.540Z,56.58
2022-12-08T17:29:37.168Z,48.33
2022-12-08T17:32:07.773Z,50.53
2022-12-08T17:34:35.896Z,45.80
2022-12-08T17:37:04.210Z,35.65
2022-12-08T17:39:32.100Z,32.75
2022-12-08T17:42:00.589Z,30.30
2022-12-08T17:44:29.208Z,34.55
2022-12-08T17:46:57.183Z,51.78
2022-12-08T17:49:30.093Z,37.53
2022-12-08T17:52:00.309Z,39.55
2022-12-08T17:54:28.570Z,20.63
2022-12-08T17:56:59.033Z,40.85
2022-12-08T17:59:28.274Z,33.80
2022-12-08T18:01:57.284Z,38.88
2022-12-08T18:04:27.902Z,28.98
2022-12-08T18:06:58.390Z,43.83
2022-12-08T18:09:26.389Z,32.90
2022-12-08T18:11:54.921Z,34.67
2022-12-08T18:14:22.938Z,36.00
2022-12-08T18:16:51.047Z,34.22
2022-12-08T18:19:19.728Z,34.13
2022-12-08T18:21:49.197Z,30.08
2022-12-08T18:24:21.239Z,35.47
2022-12-08T18:26:50.690Z,38.63
2022-12-08T18:29:18.709Z,40.83
2022-12-08T18:31:47.058Z,37.33
2022-12-08T18:34:16.336Z,32.03
2022-12-08T18:36:44.188Z,32.85
2022-12-08T18:39:23.539Z,30.00
2022-12-08T18:41:51.564Z,30.92
2022-12-08T18:44:20.005Z,29.27
2022-12-08T18:46:48.618Z,26.73
2022-12-08T18:49:19.235Z,37.03
2022-12-08T18:51:47.601Z,28.80
2022-12-08T18:54:16.011Z,27.05
2022-12-08T18:56:45.383Z,31.05
2022-12-08T18:59:13.811Z,25.60
2022-12-08T19:01:42.740Z,26.17
2022-12-08T19:04:28.061Z,27.10
2022-12-08T19:06:57.130Z,37.45
2022-12-08T19:09:29.038Z,37.45
2022-12-08T19:11:59.728Z,47.25
2022-12-08T19:14:30.774Z,28.13
2022-12-08T19:16:59.868Z,33.72
2022-12-08T19:19:28.484Z,33.78
2022-12-08T19:21:58.092Z,31.10
2022-12-08T19:24:26.925Z,28.00
2022-12-08T19:26:55.005Z,35.20
2022-12-08T19:29:24.519Z,34.30
2022-12-08T19:31:54.149Z,37.17
2022-12-08T19:34:23.321Z,34.17
2022-12-08T19:36:52.988Z,40.70
2022-12-08T19:39:41.436Z,34.00
2022-12-08T19:42:32.700Z,30.05
2022-12-08T19:45:07.675Z,29.95
2022-12-08T19:47:35.957Z,29.38
2022-12-08T19:50:21.642Z,33.15
2022-12-08T19:52:50.013Z,29.38
2022-12-08T19:55:20.888Z,27.38
2022-12-08T19:57:52.604Z,28.83
2022-12-08T20:00:22.364Z,29.83
2022-12-08T20:02:51.302Z,33.25
2022-12-08T20:05:19.769Z,31.58
2022-12-08T20:07:49.336Z,28.92
2022-12-08T20:10:19.371Z,29.83
2022-12-08T20:12:49.548Z,25.67
2022-12-08T20:15:19.398Z,30.70
2022-12-08T20:17:48.786Z,31.13
2022-12-08T20:20:16.722Z,31.45
2022-12-08T20:22:45.427Z,35.28
2022-12-08T20:25:13.591Z,36.20
2022-12-08T20:27:42.583Z,26.95
2022-12-08T20:30:16.759Z,37.42
2022-12-08T20:32:45.746Z,28.75
2022-12-08T20:35:15.898Z,27.48
2022-12-08T20:37:44.039Z,30.77
2022-12-08T20:40:14.208Z,32.72
2022-12-08T20:42:42.168Z,33.67
2022-12-08T20:45:10.708Z,51.30
2022-12-08T20:47:39.539Z,39.20
2022-12-08T20:50:09.782Z,33.40
2022-12-08T20:52:39.920Z,47.65
2022-12-08T20:55:09.088Z,36.45
2022-12-08T20:57:37.741Z,39.75
2022-12-08T21:00:07.566Z,48.45
2022-12-08T21:02:36.035Z,48.00
2022-12-08T21:05:06.427Z,34.00
2022-12-08T21:07:35.415Z,39.30
2022-12-08T21:10:05.841Z,52.25
2022-12-08T21:12:34.030Z,59.10
2022-12-08T21:15:02.423Z,39.42
2022-12-08T21:17:30.596Z,41.25
2022-12-08T21:19:59.365Z,38.55
2022-12-08T21:22:27.481Z,42.72
2022-12-08T21:24:55.497Z,46.47
2022-12-08T21:27:25.463Z,47.58
2022-12-08T21:29:53.512Z,44.08
2022-12-08T21:32:25.633Z,48.55
2022-12-08T21:34:57.012Z,38.67
2022-12-08T21:37:25.238Z,39.45
2022-12-08T21:39:53.469Z,36.65
2022-12-08T21:42:38.997Z,31.65
2022-12-08T21:45:09.955Z,44.83
2022-12-08T21:47:38.147Z,54.55
2022-12-08T21:50:08.287Z,50.13
2022-12-08T21:52:38.852Z,60.53
2022-12-08T21:55:08.398Z,43.22
2022-12-08T21:57:36.786Z,36.72
2022-12-08T22:00:05.946Z,42.33
2022-12-08T22:02:36.173Z,45.70
2022-12-08T22:05:04.359Z,37.88
2022-12-08T22:07:32.342Z,26.25
2022-12-08T22:10:00.785Z,39.35
2022-12-08T22:12:28.863Z,38.85
2022-12-08T22:14:57.149Z,36.17
2022-12-08T22:17:25.938Z,35.85
2022-12-08T22:19:55.716Z,38.70
2022-12-08T22:22:23.748Z,35.63
2022-12-08T22:24:51.664Z,51.70
2022-12-08T22:27:19.645Z,41.60
2022-12-08T22:29:48.005Z,37.33
2022-12-08T22:32:16.032Z,43.30
2022-12-08T22:34:44.136Z,45.25
2022-12-08T22:37:13.972Z,43.42
2022-12-08T22:39:42.297Z,52.72
2022-12-08T22:42:11.222Z,42.97
2022-12-08T22:45:30.036Z,41.45
2022-12-08T22:48:20.599Z,58.13
2022-12-08T22:50:48.854Z,33.95
2022-12-08T22:53:18.206Z,36.78
2022-12-08T22:55:46.673Z,33.00
2022-12-08T22:58:15.018Z,56.05
2022-12-08T23:00:43.377Z,38.65
2022-12-08T23:03:11.686Z,31.73
2022-12-08T23:05:41.660Z,25.85
2022-12-08T23:08:10.722Z,34.30
2022-12-08T23:10:41.444Z,27.40
2022-12-08T23:13:10.670Z,29.73
2022-12-08T23:15:39.236Z,38.20
2022-12-08T23:18:08.506Z,25.63
2022-12-08T23:20:37.017Z,28.83
2022-12-08T23:23:05.454Z,34.17
2022-12-08T23:25:33.576Z,38.75
2022-12-08T23:28:03.390Z,34.85
2022-12-08T23:30:31.615Z,33.03
2022-12-08T23:32:59.967Z,51.38
2022-12-08T23:35:28.393Z,44.13
2022-12-08T23:37:56.452Z,76.80
2022-12-08T23:40:24.586Z,43.15
2022-12-08T23:42:52.647Z,51.00
2022-12-08T23:45:22.094Z,37.60
2022-12-08T23:47:50.222Z,42.30
2022-12-08T23:50:18.716Z,48.10
2022-12-08T23:52:46.825Z,56.07
2022-12-08T23:55:17.831Z,46.75
2022-12-08T23:57:46.349Z,43.60
